createdAt,value
2023-04-18T00:00:07.415Z,6.35
2023-04-18T00:01:14.148Z,5.96
2023-04-18T00:02:07.559Z,6.44
2023-04-18T00:03:07.052Z,5.72
2023-04-18T00:04:07.060Z,5.87
2023-04-18T00:05:06.817Z,5.72
2023-04-18T00:06:06.759Z,5.77
2023-04-18T00:07:07.004Z,5.38
2023-04-18T00:08:06.870Z,6.46
2023-04-18T00:09:06.665Z,5.64
2023-04-18T00:10:06.642Z,5.88
2023-04-18T00:11:06.702Z,5.62
2023-04-18T00:12:06.652Z,6.13
2023-04-18T00:13:07.198Z,5.68
2023-04-18T00:14:06.629Z,5.82
2023-04-18T00:15:06.602Z,6.11
2023-04-18T00:16:06.644Z,6.35
2023-04-18T00:17:07.000Z,6.00
2023-04-18T00:18:06.689Z,5.79
2023-04-18T00:19:07.366Z,6.05
2023-04-18T00:20:06.995Z,5.70
2023-04-18T00:21:06.681Z,5.73
2023-04-18T00:22:06.649Z,6.22
2023-04-18T00:23:06.559Z,6.39
2023-04-18T00:24:06.509Z,6.36
2023-04-18T00:25:06.560Z,5.79
2023-04-18T00:26:06.629Z,6.43
2023-04-18T00:27:07.349Z,6.56
2023-04-18T00:28:15.649Z,6.52
2023-04-18T00:29:06.385Z,5.93
2023-04-18T00:30:06.481Z,6.58
2023-04-18T00:31:06.409Z,6.32
2023-04-18T00:32:07.895Z,6.57
2023-04-18T00:33:06.262Z,6.40
2023-04-18T00:34:06.227Z,5.97
2023-04-18T00:35:06.332Z,6.32
2023-04-18T00:36:06.223Z,7.61
2023-04-18T00:37:05.212Z,6.88
2023-04-18T00:38:07.324Z,6.98
2023-04-18T00:39:05.119Z,7.03
2023-04-18T00:40:06.615Z,6.77
2023-04-18T00:41:08.324Z,6.83
2023-04-18T00:42:12.810Z,7.42
2023-04-18T00:43:09.681Z,7.67
2023-04-18T00:44:06.184Z,7.39
2023-04-18T00:45:08.717Z,7.18
2023-04-18T00:46:06.068Z,6.67
2023-04-18T00:47:06.236Z,7.33
2023-04-18T00:48:06.189Z,7.03
2023-04-18T00:49:06.046Z,7.13
2023-04-18T00:50:07.545Z,7.72
2023-04-18T00:51:05.955Z,6.95
2023-04-18T00:52:05.797Z,6.88
2023-04-18T00:53:07.204Z,6.72
2023-04-18T00:54:09.730Z,6.61
2023-04-18T00:55:04.874Z,7.04
2023-04-18T00:56:05.664Z,6.51
2023-04-18T00:57:05.638Z,7.09
2023-04-18T00:58:05.704Z,7.09
2023-04-18T00:59:05.733Z,7.16
2023-04-18T01:00:09.542Z,8.03
2023-04-18T01:01:11.200Z,7.84
2023-04-18T01:02:06.535Z,7.40
2023-04-18T01:03:11.642Z,6.99
2023-04-18T01:04:06.428Z,6.80
2023-04-18T01:05:05.668Z,6.92
2023-04-18T01:06:05.719Z,7.43
2023-04-18T01:07:05.922Z,7.89
2023-04-18T01:08:05.568Z,8.26
2023-04-18T01:09:11.801Z,7.65
2023-04-18T01:10:09.690Z,7.73
2023-04-18T01:11:05.526Z,8.22
2023-04-18T01:12:05.312Z,9.04
2023-04-18T01:13:05.433Z,9.78
2023-04-18T01:14:06.143Z,9.54
2023-04-18T01:15:05.990Z,9.93
2023-04-18T01:16:09.232Z,9.70
2023-04-18T01:17:12.084Z,8.89
2023-04-18T01:18:07.167Z,9.40
2023-04-18T01:19:05.658Z,9.91
2023-04-18T01:20:12.168Z,9.98
2023-04-18T01:21:08.528Z,9.70
2023-04-18T01:22:05.249Z,9.22
2023-04-18T01:23:05.595Z,9.52
2023-04-18T01:24:06.869Z,9.08
2023-04-18T01:25:05.748Z,9.05
2023-04-18T01:26:06.756Z,9.50
2023-04-18T01:27:05.167Z,9.36
2023-04-18T01:28:12.287Z,9.50
2023-04-18T01:29:05.580Z,9.84
2023-04-18T01:30:16.636Z,9.58
2023-04-18T01:31:05.117Z,9.97
2023-04-18T01:32:05.374Z,9.65
2023-04-18T01:33:05.663Z,9.65
2023-04-18T01:34:05.129Z,9.10
2023-04-18T01:35:04.968Z,9.53
2023-04-18T01:36:07.306Z,10.28
2023-04-18T01:37:11.547Z,9.54
2023-04-18T01:38:05.000Z,9.24
2023-04-18T01:39:10.728Z,9.14
2023-04-18T01:40:05.128Z,9.27
2023-04-18T01:41:05.103Z,9.48
2023-04-18T01:42:04.766Z,10.12
2023-04-18T01:43:15.084Z,8.95
2023-04-18T01:44:04.699Z,8.63
2023-04-18T01:45:04.814Z,9.11
2023-04-18T01:46:05.086Z,9.05
2023-04-18T01:47:04.740Z,8.91
2023-04-18T01:48:05.057Z,9.51
2023-04-18T01:49:04.708Z,8.06
2023-04-18T01:50:03.683Z,8.02
2023-04-18T01:51:04.485Z,8.14
2023-04-18T01:52:04.531Z,9.16
2023-04-18T01:53:04.558Z,8.80
2023-04-18T01:54:05.154Z,8.08
2023-04-18T01:55:04.498Z,8.22
2023-04-18T01:56:04.452Z,8.15
2023-04-18T01:57:08.193Z,8.40
2023-04-18T01:58:04.192Z,8.18
2023-04-18T01:59:09.970Z,8.58
2023-04-18T02:00:08.184Z,8.80
2023-04-18T02:01:04.267Z,7.34
2023-04-18T02:02:04.431Z,8.45
2023-04-18T02:03:04.394Z,8.70
2023-04-18T02:04:05.174Z,8.52
2023-04-18T02:05:04.346Z,8.56
2023-04-18T02:06:04.571Z,9.11
2023-04-18T02:07:09.211Z,9.27
2023-04-18T02:08:04.618Z,8.16
2023-04-18T02:09:04.610Z,8.68
2023-04-18T02:10:05.108Z,8.03
2023-04-18T02:11:04.571Z,8.36
2023-04-18T02:12:10.238Z,9.09
2023-04-18T02:13:04.626Z,8.71
2023-04-18T02:14:04.551Z,8.10
2023-04-18T02:15:08.487Z,8.01
2023-04-18T02:16:04.870Z,8.82
2023-04-18T02:17:04.543Z,8.14
2023-04-18T02:18:11.023Z,8.08
2023-04-18T02:19:04.610Z,8.72
2023-04-18T02:20:04.424Z,8.69
2023-04-18T02:21:04.517Z,10.01
2023-04-18T02:22:04.754Z,10.72
2023-04-18T02:23:04.330Z,10.90
2023-04-18T02:24:04.298Z,10.46
2023-04-18T02:25:04.412Z,11.37
2023-04-18T02:26:04.398Z,10.45
2023-04-18T02:27:10.855Z,10.08
2023-04-18T02:28:10.476Z,9.46
2023-04-18T02:29:04.998Z,9.25
2023-04-18T02:30:04.144Z,8.93
2023-04-18T02:31:04.395Z,8.47
2023-04-18T02:32:04.417Z,8.71
2023-04-18T02:33:05.051Z,9.26
2023-04-18T02:34:04.023Z,8.63
2023-04-18T02:35:04.129Z,8.51
2023-04-18T02:36:06.863Z,8.29
2023-04-18T02:37:04.365Z,8.45
2023-04-18T02:38:05.817Z,7.94
2023-04-18T02:39:04.424Z,7.78
2023-04-18T02:40:04.243Z,8.93
2023-04-18T02:41:04.493Z,8.09
2023-04-18T02:42:04.423Z,7.71
2023-04-18T02:43:04.127Z,8.46
2023-04-18T02:44:04.274Z,8.36
2023-04-18T02:45:04.135Z,8.32
2023-04-18T02:46:05.122Z,8.76
2023-04-18T02:47:05.105Z,7.73
2023-04-18T02:48:04.241Z,8.43
2023-04-18T02:49:04.321Z,8.34
2023-04-18T02:50:04.230Z,7.48
2023-04-18T02:51:04.723Z,8.13
2023-04-18T02:52:10.796Z,7.64
2023-04-18T02:53:04.714Z,8.29
2023-04-18T02:54:04.386Z,7.93
2023-04-18T02:55:04.445Z,7.46
2023-04-18T02:56:04.482Z,8.37
2023-04-18T02:57:04.461Z,7.45
2023-04-18T02:58:04.229Z,7.31
2023-04-18T02:59:04.408Z,8.38
2023-04-18T03:00:04.292Z,8.63
2023-04-18T03:01:11.676Z,8.00
2023-04-18T03:02:07.538Z,7.42
2023-04-18T03:03:04.524Z,7.85
2023-04-18T03:04:10.255Z,7.66
2023-04-18T03:05:04.286Z,7.67
2023-04-18T03:06:04.200Z,7.80
2023-04-18T03:07:04.285Z,7.81
2023-04-18T03:08:09.050Z,8.08
2023-04-18T03:09:05.877Z,7.51
2023-04-18T03:10:04.531Z,7.80
2023-04-18T03:11:04.410Z,7.50
2023-04-18T03:12:05.954Z,7.70
2023-04-18T03:13:04.924Z,7.55
2023-04-18T03:14:03.805Z,7.66
2023-04-18T03:15:03.429Z,7.09
2023-04-18T03:16:04.192Z,7.36
2023-04-18T03:17:04.233Z,8.37
2023-04-18T03:18:08.990Z,8.27
2023-04-18T03:19:04.163Z,8.85
2023-04-18T03:20:05.361Z,8.56
2023-04-18T03:21:02.990Z,8.95
2023-04-18T03:22:05.194Z,7.75
2023-04-18T03:23:04.257Z,9.32
2023-04-18T03:24:04.765Z,8.03
2023-04-18T03:27:53.753Z,8.32
2023-04-18T03:28:44.528Z,9.69
2023-04-18T03:29:43.736Z,8.84
2023-04-18T03:30:45.181Z,10.21
2023-04-18T03:31:44.386Z,9.50
2023-04-18T03:32:43.793Z,9.90
2023-04-18T03:33:48.266Z,9.35
2023-04-18T03:34:46.540Z,9.42
2023-04-18T03:35:43.466Z,9.29
2023-04-18T03:36:46.588Z,9.11
2023-04-18T03:37:43.582Z,9.16
2023-04-18T03:38:45.646Z,9.59
2023-04-18T03:39:45.581Z,9.54
2023-04-18T03:40:43.117Z,9.58
2023-04-18T03:41:44.428Z,9.63
2023-04-18T03:42:44.140Z,8.52
2023-04-18T03:43:45.261Z,9.40
2023-04-18T03:44:44.052Z,8.95
2023-04-18T03:45:44.065Z,9.94
2023-04-18T03:46:43.794Z,10.33
2023-04-18T03:47:44.208Z,9.90
2023-04-18T03:48:44.036Z,9.82
2023-04-18T03:49:44.539Z,9.63
2023-04-18T03:50:43.794Z,9.65
2023-04-18T03:51:44.920Z,9.41
2023-04-18T03:52:45.047Z,8.49
2023-04-18T03:53:43.999Z,9.25
2023-04-18T03:54:44.365Z,8.28
2023-04-18T03:55:45.234Z,8.57
2023-04-18T03:56:45.095Z,8.04
2023-04-18T03:57:44.738Z,8.11
2023-04-18T03:58:45.162Z,8.47
2023-04-18T03:59:45.159Z,9.05
2023-04-18T04:00:44.357Z,8.88
2023-04-18T04:01:44.377Z,8.83
2023-04-18T04:02:43.694Z,9.44
2023-04-18T04:03:44.178Z,9.20
2023-04-18T04:04:44.011Z,9.03
2023-04-18T04:05:44.007Z,9.05
2023-04-18T04:06:44.519Z,9.17
2023-04-18T04:07:44.091Z,10.00
2023-04-18T04:08:44.817Z,10.07
2023-04-18T04:09:43.823Z,10.68
2023-04-18T04:10:43.800Z,11.01
2023-04-18T04:11:43.719Z,11.83
2023-04-18T04:12:43.825Z,11.06
2023-04-18T04:13:43.725Z,11.69
2023-04-18T04:14:44.137Z,12.66
2023-04-18T04:15:43.842Z,12.39
2023-04-18T04:16:43.784Z,13.06
2023-04-18T04:17:43.735Z,11.42
2023-04-18T04:18:43.876Z,12.21
2023-04-18T04:19:44.280Z,11.61
2023-04-18T04:20:44.077Z,11.53
2023-04-18T04:21:43.671Z,10.63
2023-04-18T04:22:44.104Z,11.40
2023-04-18T04:23:43.794Z,12.04
2023-04-18T04:24:45.130Z,11.97
2023-04-18T04:25:44.011Z,11.21
2023-04-18T04:26:44.017Z,10.93
2023-04-18T04:27:43.807Z,11.32
2023-04-18T04:28:43.736Z,11.23
2023-04-18T04:29:44.037Z,11.42
2023-04-18T04:30:43.650Z,11.00
2023-04-18T04:31:43.994Z,10.52
2023-04-18T04:32:44.115Z,10.69
2023-04-18T04:33:43.756Z,10.72
2023-04-18T04:34:43.965Z,11.17
2023-04-18T04:35:44.477Z,10.64
2023-04-18T04:36:43.585Z,10.91
2023-04-18T04:37:43.777Z,10.43
2023-04-18T04:38:44.093Z,11.37
2023-04-18T04:39:44.321Z,11.51
2023-04-18T04:40:44.609Z,11.15
2023-04-18T04:41:43.807Z,10.49
2023-04-18T04:42:44.736Z,10.56
2023-04-18T04:43:43.921Z,11.51
2023-04-18T04:44:43.790Z,9.79
2023-04-18T04:45:43.899Z,10.47
2023-04-18T04:46:43.692Z,9.18
2023-04-18T04:47:43.996Z,10.13
2023-04-18T04:48:43.637Z,9.57
2023-04-18T04:49:43.861Z,9.89
2023-04-18T04:50:43.966Z,10.05
2023-04-18T04:51:43.972Z,10.19
2023-04-18T04:52:44.607Z,10.31
2023-04-18T04:53:44.605Z,9.29
2023-04-18T04:54:44.762Z,9.60
2023-04-18T04:55:44.104Z,10.98
2023-04-18T04:56:45.749Z,10.27
2023-04-18T04:57:43.910Z,10.87
2023-04-18T04:58:45.549Z,11.16
2023-04-18T04:59:44.541Z,11.20
2023-04-18T05:00:45.153Z,11.38
2023-04-18T05:01:44.585Z,11.24
2023-04-18T05:02:44.469Z,10.08
2023-04-18T05:03:44.879Z,10.83
2023-04-18T05:04:45.903Z,10.05
2023-04-18T05:05:44.276Z,10.47
2023-04-18T05:06:44.791Z,11.60
2023-04-18T05:07:45.195Z,10.59
2023-04-18T05:08:44.483Z,10.50
2023-04-18T05:09:44.972Z,10.56
2023-04-18T05:10:46.759Z,11.50
2023-04-18T05:11:45.027Z,11.38
2023-04-18T05:12:45.538Z,11.51
2023-04-18T05:13:47.194Z,12.23
2023-04-18T05:15:14.229Z,11.72
2023-04-18T05:26:25.179Z,15.37
2023-04-18T05:27:26.291Z,15.37
2023-04-18T05:31:04.932Z,14.00
2023-04-18T05:32:06.567Z,14.88
2023-04-18T05:33:06.770Z,14.73
2023-04-18T05:34:07.209Z,14.40
2023-04-18T05:35:07.307Z,14.30
2023-04-18T05:36:08.232Z,13.78
2023-04-18T05:37:08.243Z,13.42
2023-04-18T05:39:28.940Z,7.86
2023-04-18T05:44:28.049Z,13.50
2023-04-18T05:45:27.558Z,14.28
2023-04-18T05:51:23.048Z,15.82
2023-04-18T05:57:29.447Z,13.87
2023-04-18T05:58:27.390Z,14.09
2023-04-18T06:01:27.548Z,12.22
2023-04-18T06:22:05.471Z,11.58
2023-04-18T06:22:59.228Z,15.46
2023-04-18T06:35:43.130Z,8.47
2023-04-18T06:39:44.427Z,7.11
2023-04-18T06:42:02.957Z,13.18
2023-04-18T06:43:05.764Z,15.29
2023-04-18T07:00:17.114Z,11.59
2023-04-18T07:15:53.447Z,13.53
2023-04-18T07:16:53.323Z,12.74
2023-04-18T07:17:53.373Z,12.42
2023-04-18T07:18:53.822Z,12.56
2023-04-18T07:19:53.285Z,11.89
2023-04-18T07:20:53.602Z,12.15
2023-04-18T07:21:53.763Z,11.88
2023-04-18T07:22:53.544Z,11.53
2023-04-18T07:23:54.074Z,12.49
2023-04-18T07:24:53.355Z,12.48
2023-04-18T07:25:54.527Z,13.08
2023-04-18T07:26:55.071Z,12.32
2023-04-18T07:27:54.136Z,13.59
2023-04-18T07:28:53.748Z,12.83
2023-04-18T07:29:53.839Z,12.87
2023-04-18T07:30:53.278Z,14.04
2023-04-18T07:31:53.363Z,14.41
2023-04-18T07:32:54.059Z,14.13
2023-04-18T07:33:54.889Z,14.64
2023-04-18T07:34:53.846Z,15.15
2023-04-18T07:36:06.066Z,16.87
2023-04-18T07:36:54.211Z,15.45
2023-04-18T07:37:53.842Z,15.26
2023-04-18T07:39:02.887Z,14.19
2023-04-18T07:39:53.550Z,15.03
2023-04-18T07:49:43.122Z,9.08
2023-04-18T07:52:06.342Z,5.48
2023-04-18T09:22:15.985Z,12.38
2023-04-18T09:23:19.742Z,12.49
2023-04-18T09:24:13.940Z,12.39
2023-04-18T09:25:19.626Z,11.99
2023-04-18T09:27:31.204Z,9.25
2023-04-18T09:31:11.386Z,8.15
2023-04-18T09:59:54.357Z,7.01
2023-04-18T10:00:56.810Z,7.77
2023-04-18T10:03:15.002Z,7.00
2023-04-18T10:11:04.555Z,7.11
2023-04-18T10:18:06.274Z,2.36
2023-04-18T10:26:30.352Z,4.78
2023-04-18T10:29:07.317Z,3.46
2023-04-18T10:45:45.767Z,2.30
2023-04-18T10:51:16.614Z,6.01
2023-04-18T10:56:43.084Z,3.45
2023-04-18T11:19:05.458Z,4.75
2023-04-18T11:56:47.772Z,4.74
2023-04-18T12:30:24.376Z,8.35
2023-04-18T12:42:09.127Z,5.48
2023-04-18T12:44:43.399Z,4.81
2023-04-18T12:47:22.289Z,5.39
2023-04-18T12:48:26.149Z,6.98
2023-04-18T12:49:25.383Z,6.76
2023-04-18T12:50:23.546Z,7.46
2023-04-18T12:59:01.191Z,3.62
2023-04-18T13:07:21.632Z,4.22
2023-04-18T13:23:54.149Z,5.50
2023-04-18T13:26:14.366Z,6.98
2023-04-18T13:28:34.009Z,8.05
2023-04-18T13:30:56.784Z,6.57
2023-04-18T13:32:04.826Z,5.85
2023-04-18T13:32:56.373Z,6.25
2023-04-18T13:33:55.051Z,6.37
2023-04-18T13:35:07.417Z,7.15
2023-04-18T13:37:13.316Z,5.70
2023-04-18T13:39:32.109Z,5.90
2023-04-18T13:41:54.892Z,4.64
2023-04-18T13:42:53.301Z,5.26
2023-04-18T13:43:52.660Z,5.60
2023-04-18T13:44:57.349Z,5.42
2023-04-18T13:45:54.869Z,5.75
2023-04-18T13:46:52.384Z,5.80
2023-04-18T14:14:15.399Z,8.54
2023-04-18T14:21:17.689Z,4.86
2023-04-18T14:34:54.953Z,3.52
2023-04-18T14:37:14.563Z,4.79
2023-04-18T14:38:14.335Z,6.05
2023-04-18T14:40:33.908Z,5.67
2023-04-18T14:42:52.650Z,5.41
2023-04-18T14:43:54.934Z,5.85
2023-04-18T14:44:53.389Z,4.95
2023-04-18T14:45:59.017Z,5.30
2023-04-18T14:46:56.337Z,5.45
2023-04-18T14:47:54.322Z,5.01
2023-04-18T14:48:54.746Z,5.38
2023-04-18T14:51:18.601Z,5.53
2023-04-18T14:54:51.632Z,5.12
2023-04-18T14:57:13.867Z,4.78
2023-04-18T15:02:11.226Z,6.96
2023-04-18T15:03:12.525Z,6.06
2023-04-18T15:04:11.447Z,5.90
2023-04-18T15:05:11.365Z,5.78
2023-04-18T15:06:11.236Z,5.44
2023-04-18T15:07:16.255Z,5.43
2023-04-18T15:08:14.025Z,5.95
2023-04-18T15:09:11.967Z,5.58
2023-04-18T15:10:13.715Z,5.30
2023-04-18T15:11:12.867Z,5.15
2023-04-18T15:12:14.948Z,6.02
2023-04-18T15:13:20.286Z,6.22
2023-04-18T15:14:15.116Z,5.62
2023-04-18T15:15:13.956Z,5.84
2023-04-18T15:16:12.960Z,5.63
2023-04-18T15:17:12.900Z,5.48
2023-04-18T15:18:12.477Z,6.26
2023-04-18T15:19:12.042Z,5.04
2023-04-18T15:20:12.865Z,5.51
2023-04-18T15:21:11.763Z,5.63
2023-04-18T15:22:11.870Z,5.81
2023-04-18T15:23:11.959Z,5.87
2023-04-18T15:24:14.023Z,5.99
2023-04-18T15:25:11.637Z,5.93
2023-04-18T15:26:12.395Z,6.28
2023-04-18T15:27:12.299Z,6.87
2023-04-18T15:28:13.267Z,5.69
2023-04-18T15:29:13.051Z,5.98
2023-04-18T15:30:12.318Z,5.57
2023-04-18T15:31:12.332Z,6.19
2023-04-18T15:32:12.492Z,6.54
2023-04-18T15:33:13.153Z,6.12
2023-04-18T15:34:14.037Z,5.99
2023-04-18T15:35:17.391Z,5.84
2023-04-18T15:36:13.598Z,5.92
2023-04-18T15:37:15.730Z,6.11
2023-04-18T15:38:13.198Z,5.69
2023-04-18T15:39:12.784Z,5.79
2023-04-18T15:40:14.238Z,5.67
2023-04-18T15:41:13.932Z,5.34
2023-04-18T15:42:13.946Z,6.80
2023-04-18T15:43:15.278Z,5.95
2023-04-18T15:44:12.797Z,6.41
2023-04-18T15:45:14.118Z,6.07
2023-04-18T15:46:12.897Z,5.64
2023-04-18T15:47:12.836Z,6.08
2023-04-18T15:48:13.887Z,5.57
2023-04-18T15:49:13.177Z,6.16
2023-04-18T15:50:13.818Z,6.15
2023-04-18T15:51:13.496Z,5.79
2023-04-18T15:52:12.377Z,6.12
2023-04-18T15:53:13.225Z,6.23
2023-04-18T15:54:13.567Z,6.27
2023-04-18T15:55:12.811Z,7.38
2023-04-18T15:56:13.017Z,6.50
2023-04-18T15:57:13.039Z,6.25
2023-04-18T15:58:13.146Z,6.22
2023-04-18T15:59:13.229Z,5.85
2023-04-18T16:00:13.528Z,6.35
2023-04-18T16:01:14.321Z,5.95
2023-04-18T16:02:16.348Z,5.92
2023-04-18T16:03:14.566Z,5.94
2023-04-18T16:04:14.524Z,5.59
2023-04-18T16:05:13.708Z,6.44
2023-04-18T16:06:13.571Z,5.75
2023-04-18T16:07:13.497Z,5.81
2023-04-18T16:08:13.202Z,5.85
2023-04-18T16:09:13.713Z,6.26
2023-04-18T16:10:13.598Z,6.36
2023-04-18T16:11:13.331Z,6.36
2023-04-18T16:12:13.556Z,5.84
2023-04-18T16:13:13.537Z,5.86
2023-04-18T16:14:14.020Z,6.42
2023-04-18T16:15:13.545Z,6.44
2023-04-18T16:16:13.408Z,6.07
2023-04-18T16:17:13.151Z,5.96
2023-04-18T16:18:14.054Z,6.35
2023-04-18T16:19:13.861Z,7.02
2023-04-18T16:20:13.611Z,6.34
2023-04-18T16:21:13.888Z,6.22
2023-04-18T16:22:13.587Z,6.19
2023-04-18T16:23:14.445Z,5.71
2023-04-18T16:24:13.692Z,5.97
2023-04-18T16:25:13.723Z,5.67
2023-04-18T16:26:13.728Z,5.83
2023-04-18T16:27:13.910Z,5.83
2023-04-18T16:28:13.917Z,5.63
2023-04-18T16:29:14.131Z,5.60
2023-04-18T16:30:13.828Z,5.73
2023-04-18T16:31:13.718Z,6.93
2023-04-18T16:32:15.245Z,5.90
2023-04-18T16:33:14.401Z,5.87
2023-04-18T16:34:14.688Z,5.99
2023-04-18T16:35:14.182Z,5.79
2023-04-18T16:36:14.816Z,5.72
2023-04-18T16:37:14.860Z,5.53
2023-04-18T16:38:14.714Z,6.05
2023-04-18T16:39:17.236Z,6.81
2023-04-18T16:40:15.566Z,5.93
2023-04-18T16:41:14.520Z,5.38
2023-04-18T16:42:15.695Z,6.26
2023-04-18T16:43:14.249Z,6.73
2023-04-18T16:44:14.187Z,6.39
2023-04-18T16:45:13.315Z,6.13
2023-04-18T16:46:14.228Z,5.68
2023-04-18T16:47:14.584Z,5.99
2023-04-18T16:48:14.894Z,6.02
2023-04-18T16:49:14.383Z,6.08
2023-04-18T16:50:14.120Z,5.84
2023-04-18T16:51:13.980Z,5.65
2023-04-18T16:52:14.310Z,5.81
2023-04-18T16:53:14.624Z,4.97
2023-04-18T16:54:14.732Z,5.84
2023-04-18T16:55:14.748Z,5.50
2023-04-18T16:56:14.070Z,5.53
2023-04-18T16:57:14.008Z,5.63
2023-04-18T16:58:14.245Z,5.68
2023-04-18T16:59:14.638Z,5.88
2023-04-18T17:00:14.267Z,6.12
2023-04-18T17:01:15.257Z,6.24
2023-04-18T17:02:14.649Z,5.59
2023-04-18T17:03:14.875Z,6.11
2023-04-18T17:04:15.021Z,6.09
2023-04-18T17:05:14.726Z,5.56
2023-04-18T17:06:15.297Z,5.88
2023-04-18T17:07:14.616Z,5.32
2023-04-18T17:08:17.978Z,6.44
2023-04-18T17:09:16.151Z,5.78
2023-04-18T17:10:17.856Z,6.59
2023-04-18T17:11:16.748Z,5.57
2023-04-18T17:12:15.983Z,5.97
2023-04-18T17:13:18.319Z,6.08
2023-04-18T17:14:17.533Z,5.36
2023-04-18T17:15:16.464Z,5.98
2023-04-18T17:16:17.371Z,5.35
2023-04-18T17:17:17.040Z,5.42
2023-04-18T17:18:17.660Z,5.39
2023-04-18T17:19:16.622Z,5.90
2023-04-18T17:20:15.476Z,5.86
2023-04-18T17:21:15.817Z,6.45
2023-04-18T17:22:14.850Z,6.00
2023-04-18T17:23:16.259Z,6.42
2023-04-18T17:24:15.997Z,5.63
2023-04-18T17:25:15.357Z,6.29
2023-04-18T17:26:15.685Z,5.94
2023-04-18T17:27:16.430Z,5.51
2023-04-18T17:28:18.837Z,5.84
2023-04-18T17:29:16.548Z,5.46
2023-04-18T17:30:17.197Z,6.37
2023-04-18T17:31:16.329Z,6.10
2023-04-18T17:32:17.048Z,4.96
2023-04-18T17:33:18.583Z,5.24
2023-04-18T17:34:21.129Z,5.27
2023-04-18T17:35:17.379Z,6.61
2023-04-18T17:36:15.702Z,5.73
2023-04-18T17:37:18.094Z,7.05
2023-04-18T17:38:18.582Z,6.53
2023-04-18T17:39:18.020Z,5.59
2023-04-18T17:40:16.696Z,5.84
2023-04-18T17:41:16.480Z,6.13
2023-04-18T17:42:17.812Z,6.03
2023-04-18T17:43:17.624Z,6.30
2023-04-18T17:44:18.836Z,6.13
2023-04-18T17:45:16.403Z,5.62
2023-04-18T17:46:16.949Z,6.16
2023-04-18T17:47:17.320Z,5.62
2023-04-18T17:48:17.213Z,5.97
2023-04-18T17:49:19.335Z,5.96
2023-04-18T17:50:16.405Z,6.30
2023-04-18T17:51:16.667Z,6.03
2023-04-18T17:52:16.410Z,6.73
2023-04-18T17:53:16.962Z,6.66
2023-04-18T17:54:17.994Z,6.18
2023-04-18T17:55:17.835Z,6.05
2023-04-18T17:56:17.675Z,6.22
2023-04-18T17:57:17.846Z,5.93
2023-04-18T17:58:19.320Z,6.35
2023-04-18T17:59:16.966Z,5.89
2023-04-18T18:00:16.607Z,6.20
2023-04-18T18:01:16.877Z,5.35
2023-04-18T18:02:16.872Z,6.53
2023-04-18T18:03:17.896Z,6.45
2023-04-18T18:04:17.389Z,5.45
2023-04-18T18:05:17.264Z,5.78
2023-04-18T18:06:16.524Z,6.01
2023-04-18T18:07:17.265Z,5.59
2023-04-18T18:08:17.266Z,5.38
2023-04-18T18:09:17.349Z,5.97
2023-04-18T18:10:16.336Z,5.93
2023-04-18T18:11:16.888Z,5.52
2023-04-18T18:12:16.700Z,5.98
2023-04-18T18:13:18.540Z,6.02
2023-04-18T18:14:17.218Z,6.38
2023-04-18T18:15:17.859Z,6.01
2023-04-18T18:16:17.461Z,6.06
2023-04-18T18:17:18.062Z,6.08
2023-04-18T18:18:18.834Z,6.33
2023-04-18T18:19:17.093Z,5.62
2023-04-18T18:20:16.923Z,6.13
2023-04-18T18:21:17.469Z,5.94
2023-04-18T18:22:17.882Z,6.06
2023-04-18T18:23:17.246Z,6.47
2023-04-18T18:24:17.280Z,6.08
2023-04-18T18:25:17.023Z,6.39
2023-04-18T18:26:17.402Z,6.37
2023-04-18T18:27:17.788Z,6.19
2023-04-18T18:28:17.818Z,6.75
2023-04-18T18:29:18.030Z,6.91
2023-04-18T18:30:18.037Z,7.23
2023-04-18T18:31:18.066Z,6.04
2023-04-18T18:32:18.563Z,6.59
2023-04-18T18:33:17.957Z,5.53
2023-04-18T18:34:17.802Z,6.79
2023-04-18T18:35:19.504Z,6.25
2023-04-18T18:36:18.955Z,6.58
2023-04-18T18:37:18.043Z,6.37
2023-04-18T18:38:18.358Z,5.93
2023-04-18T18:39:18.777Z,6.53
2023-04-18T18:40:17.998Z,6.34
2023-04-18T18:41:20.336Z,6.23
2023-04-18T18:42:19.915Z,7.10
2023-04-18T18:43:18.952Z,6.61
2023-04-18T18:44:19.620Z,6.71
2023-04-18T18:45:17.831Z,6.10
2023-04-18T18:46:19.417Z,6.75
2023-04-18T18:47:19.009Z,6.74
2023-04-18T18:48:20.128Z,6.24
2023-04-18T18:49:20.288Z,6.15
2023-04-18T18:50:18.623Z,5.65
2023-04-18T18:51:18.295Z,5.93
2023-04-18T18:52:21.151Z,6.67
2023-04-18T18:53:19.929Z,6.14
2023-04-18T18:54:19.321Z,6.41
2023-04-18T18:55:18.895Z,6.10
2023-04-18T18:56:20.602Z,6.18
2023-04-18T18:57:19.091Z,6.70
2023-04-18T18:58:21.351Z,6.60
2023-04-18T18:59:19.334Z,6.51
2023-04-18T19:00:19.102Z,6.16
2023-04-18T19:01:20.263Z,6.60
2023-04-18T19:02:19.256Z,6.65
2023-04-18T19:03:20.033Z,6.12
2023-04-18T19:04:19.448Z,6.57
2023-04-18T19:05:18.891Z,6.24
2023-04-18T19:06:19.155Z,6.21
2023-04-18T19:07:20.086Z,6.42
2023-04-18T19:08:19.202Z,6.72
2023-04-18T19:09:19.325Z,7.30
2023-04-18T19:10:19.001Z,6.28
2023-04-18T19:11:19.452Z,6.25
2023-04-18T19:12:20.016Z,6.07
2023-04-18T19:13:19.713Z,6.26
2023-04-18T19:14:19.150Z,6.58
2023-04-18T19:15:19.885Z,6.81
2023-04-18T19:16:18.995Z,7.01
2023-04-18T19:17:19.537Z,6.83
2023-04-18T19:18:19.869Z,6.63
2023-04-18T19:19:20.528Z,6.68
2023-04-18T19:20:20.851Z,7.14
2023-04-18T19:21:19.764Z,7.17
2023-04-18T19:22:20.484Z,7.44
2023-04-18T19:23:21.209Z,7.04
2023-04-18T19:24:21.360Z,7.19
2023-04-18T19:25:19.842Z,7.76
2023-04-18T19:26:22.395Z,7.71
2023-04-18T19:27:21.038Z,7.00
2023-04-18T19:28:21.856Z,7.50
2023-04-18T19:29:19.845Z,7.33
2023-04-18T19:30:19.830Z,7.96
2023-04-18T19:31:19.916Z,7.41
2023-04-18T19:32:20.497Z,6.42
2023-04-18T19:33:20.147Z,7.41
2023-04-18T19:34:19.643Z,7.17
2023-04-18T19:35:20.402Z,7.52
2023-04-18T19:36:19.861Z,7.02
2023-04-18T19:37:21.629Z,7.08
2023-04-18T19:38:20.796Z,6.76
2023-04-18T19:39:22.071Z,6.80
2023-04-18T19:40:20.705Z,6.61
2023-04-18T19:41:20.918Z,6.98
2023-04-18T19:42:20.408Z,7.51
2023-04-18T19:43:21.561Z,6.75
2023-04-18T19:44:20.402Z,7.58
2023-04-18T19:45:20.584Z,6.55
2023-04-18T19:46:20.076Z,7.45
2023-04-18T19:47:20.420Z,7.46
2023-04-18T19:48:21.628Z,7.47
2023-04-18T19:49:21.227Z,6.83
2023-04-18T19:50:23.025Z,7.21
2023-04-18T19:51:20.815Z,7.45
2023-04-18T19:52:22.176Z,6.54
2023-04-18T19:53:22.407Z,6.65
2023-04-18T19:54:22.212Z,7.58
2023-04-18T19:55:21.359Z,8.16
2023-04-18T19:56:21.620Z,7.57
2023-04-18T19:57:22.570Z,7.39
2023-04-18T19:58:20.924Z,7.67
2023-04-18T19:59:21.328Z,7.25
2023-04-18T20:00:22.859Z,6.95
2023-04-18T20:01:20.665Z,7.22
2023-04-18T20:02:21.024Z,7.48
2023-04-18T20:03:21.234Z,7.22
2023-04-18T20:04:22.054Z,7.48
2023-04-18T20:05:22.697Z,6.86
2023-04-18T20:06:21.079Z,7.49
2023-04-18T20:07:22.711Z,7.87
2023-04-18T20:08:23.555Z,7.28
2023-04-18T20:09:24.380Z,7.66
2023-04-18T20:10:22.345Z,7.38
2023-04-18T20:11:22.919Z,7.61
2023-04-18T20:12:21.220Z,7.67
2023-04-18T20:13:22.139Z,7.47
2023-04-18T20:14:21.855Z,7.07
2023-04-18T20:15:21.448Z,7.37
2023-04-18T20:16:21.824Z,7.01
2023-04-18T20:17:22.258Z,8.17
2023-04-18T20:18:21.352Z,7.01
2023-04-18T20:19:24.092Z,7.32
2023-04-18T20:20:21.407Z,7.23
2023-04-18T20:21:22.884Z,8.05
2023-04-18T20:22:21.218Z,7.37
2023-04-18T20:23:22.419Z,7.46
2023-04-18T20:24:22.026Z,7.73
2023-04-18T20:25:21.558Z,7.54
2023-04-18T20:26:21.981Z,7.50
2023-04-18T20:27:21.998Z,7.28
2023-04-18T20:28:21.592Z,8.28
2023-04-18T20:29:21.905Z,7.60
2023-04-18T20:30:21.606Z,7.58
2023-04-18T20:31:22.355Z,7.49
2023-04-18T20:32:22.891Z,6.85
2023-04-18T20:33:23.403Z,7.51
2023-04-18T20:34:21.863Z,7.26
2023-04-18T20:35:22.202Z,6.48
2023-04-18T20:36:22.144Z,6.90
2023-04-18T20:37:22.424Z,6.85
2023-04-18T20:38:23.639Z,7.88
2023-04-18T20:39:22.275Z,6.78
2023-04-18T20:40:22.495Z,6.47
2023-04-18T20:41:22.543Z,6.85
2023-04-18T20:42:22.355Z,7.19
2023-04-18T20:43:23.242Z,7.29
2023-04-18T20:44:23.447Z,7.42
2023-04-18T20:45:22.358Z,7.49
2023-04-18T20:46:22.705Z,7.14
2023-04-18T20:47:22.839Z,7.24
2023-04-18T20:48:23.808Z,7.63
2023-04-18T20:49:23.417Z,6.51
2023-04-18T20:50:22.493Z,7.43
2023-04-18T20:51:22.770Z,6.89
2023-04-18T20:52:23.398Z,6.35
2023-04-18T20:53:23.231Z,6.51
2023-04-18T20:54:24.230Z,6.43
2023-04-18T20:55:23.103Z,7.09
2023-04-18T20:56:23.042Z,6.47
2023-04-18T20:57:22.472Z,7.74
2023-04-18T20:58:24.509Z,6.70
2023-04-18T20:59:22.860Z,7.35
2023-04-18T21:00:22.765Z,6.95
2023-04-18T21:01:24.109Z,7.21
2023-04-18T21:02:23.486Z,7.37
2023-04-18T21:03:23.432Z,7.07
2023-04-18T21:04:23.288Z,6.58
2023-04-18T21:05:24.337Z,6.86
2023-04-18T21:06:23.010Z,6.94
2023-04-18T21:07:23.936Z,6.01
2023-04-18T21:08:23.792Z,7.27
2023-04-18T21:09:23.615Z,7.25
2023-04-18T21:10:24.666Z,7.02
2023-04-18T21:11:23.830Z,7.53
2023-04-18T21:12:24.656Z,7.95
2023-04-18T21:13:23.567Z,6.88
2023-04-18T21:14:23.842Z,7.13